sensor_id;sensor_type;location;lat;lon;timestamp;P1;durP1;ratioP1;P2;durP2;ratioP2
54561;SDS011;40456;53.358;-1.486;2022-11-14T00:01:53;15.35;;;9.68;;
54561;SDS011;40456;53.358;-1.486;2022-11-14T00:04:18;16.45;;;10.55;;
54561;SDS011;40456;53.358;-1.486;2022-11-14T00:06:44;14.57;;;9.73;;
54561;SDS011;40456;53.358;-1.486;2022-11-14T00:09:09;17.00;;;10.10;;
54561;SDS011;40456;53.358;-1.486;2022-11-14T00:11:34;15.05;;;9.52;;
54561;SDS011;40456;53.358;-1.486;2022-11-14T00:14:00;15.80;;;9.80;;
54561;SDS011;40456;53.358;-1.486;2022-11-14T00:16:25;15.20;;;9.07;;
54561;SDS011;40456;53.358;-1.486;2022-11-14T00:18:51;15.18;;;8.93;;
54561;SDS011;40456;53.358;-1.486;2022-11-14T00:21:17;17.55;;;10.05;;
54561;SDS011;40456;53.358;-1.486;2022-11-14T00:23:42;13.55;;;9.48;;
54561;SDS011;40456;53.358;-1.486;2022-11-14T00:26:08;13.65;;;9.57;;
54561;SDS011;40456;53.358;-1.486;2022-11-14T00:28:33;16.55;;;10.25;;
54561;SDS011;40456;53.358;-1.486;2022-11-14T00:30:58;14.52;;;8.55;;
54561;SDS011;40456;53.358;-1.486;2022-11-14T00:33:24;15.43;;;9.10;;
54561;SDS011;40456;53.358;-1.486;2022-11-14T00:35:53;15.73;;;8.63;;
54561;SDS011;40456;53.358;-1.486;2022-11-14T00:38:19;13.98;;;9.07;;
54561;SDS011;40456;53.358;-1.486;2022-11-14T00:40:44;16.45;;;9.45;;
54561;SDS011;40456;53.358;-1.486;2022-11-14T00:43:09;14.85;;;8.85;;
54561;SDS011;40456;53.358;-1.486;2022-11-14T00:45:35;15.85;;;9.23;;
54561;SDS011;40456;53.358;-1.486;2022-11-14T00:48:00;14.52;;;9.02;;
54561;SDS011;40456;53.358;-1.486;2022-11-14T00:50:25;16.50;;;9.70;;
54561;SDS011;40456;53.358;-1.486;2022-11-14T00:52:51;15.40;;;8.55;;
54561;SDS011;40456;53.358;-1.486;2022-11-14T00:55:16;14.85;;;9.23;;
54561;SDS011;40456;53.358;-1.486;2022-11-14T00:57:42;18.15;;;9.80;;
54561;SDS011;40456;53.358;-1.486;2022-11-14T01:00:07;14.75;;;9.85;;
54561;SDS011;40456;53.358;-1.486;2022-11-14T01:02:33;17.35;;;10.40;;
54561;SDS011;40456;53.358;-1.486;2022-11-14T01:04:59;14.98;;;9.00;;
54561;SDS011;40456;53.358;-1.486;2022-11-14T01:07:24;19.60;;;10.25;;
54561;SDS011;40456;53.358;-1.486;2022-11-14T01:09:50;15.90;;;9.80;;
54561;SDS011;40456;53.358;-1.486;2022-11-14T01:12:15;17.80;;;10.05;;
54561;SDS011;40456;53.358;-1.486;2022-11-14T01:14:40;19.70;;;10.07;;
54561;SDS011;40456;53.358;-1.486;2022-11-14T01:17:06;17.15;;;9.07;;
54561;SDS011;40456;53.358;-1.486;2022-11-14T01:19:31;14.13;;;8.90;;
54561;SDS011;40456;53.358;-1.486;2022-11-14T01:21:57;14.00;;;9.75;;
54561;SDS011;40456;53.358;-1.486;2022-11-14T01:24:22;16.73;;;9.10;;
54561;SDS011;40456;53.358;-1.486;2022-11-14T01:26:47;15.18;;;8.55;;
54561;SDS011;40456;53.358;-1.486;2022-11-14T01:29:13;15.13;;;8.93;;
54561;SDS011;40456;53.358;-1.486;2022-11-14T01:31:38;16.17;;;9.75;;
54561;SDS011;40456;53.358;-1.486;2022-11-14T01:34:03;16.25;;;9.82;;
54561;SDS011;40456;53.358;-1.486;2022-11-14T01:36:29;13.90;;;8.50;;
54561;SDS011;40456;53.358;-1.486;2022-11-14T01:38:55;13.27;;;8.70;;
54561;SDS011;40456;53.358;-1.486;2022-11-14T01:41:20;15.20;;;9.20;;
54561;SDS011;40456;53.358;-1.486;2022-11-14T01:43:46;14.40;;;8.80;;
54561;SDS011;40456;53.358;-1.486;2022-11-14T01:46:16;17.27;;;9.43;;
54561;SDS011;40456;53.358;-1.486;2022-11-14T01:48:50;16.00;;;9.05;;
54561;SDS011;40456;53.358;-1.486;2022-11-14T01:53:45;16.50;;;9.18;;
54561;SDS011;40456;53.358;-1.486;2022-11-14T01:56:13;13.20;;;8.70;;
54561;SDS011;40456;53.358;-1.486;2022-11-14T01:58:40;15.07;;;9.15;;
54561;SDS011;40456;53.358;-1.486;2022-11-14T02:01:09;16.70;;;9.95;;
54561;SDS011;40456;53.358;-1.486;2022-11-14T02:03:35;13.45;;;8.55;;
54561;SDS011;40456;53.358;-1.486;2022-11-14T02:06:03;15.50;;;9.30;;
54561;SDS011;40456;53.358;-1.486;2022-11-14T02:08:31;13.57;;;9.52;;
54561;SDS011;40456;53.358;-1.486;2022-11-14T02:10:57;16.88;;;9.30;;
54561;SDS011;40456;53.358;-1.486;2022-11-14T02:13:22;15.05;;;9.02;;
54561;SDS011;40456;53.358;-1.486;2022-11-14T02:15:48;15.25;;;8.88;;
54561;SDS011;40456;53.358;-1.486;2022-11-14T02:18:14;13.38;;;8.90;;
54561;SDS011;40456;53.358;-1.486;2022-11-14T02:20:40;14.30;;;9.27;;
54561;SDS011;40456;53.358;-1.486;2022-11-14T02:23:10;15.38;;;9.90;;
54561;SDS011;40456;53.358;-1.486;2022-11-14T02:25:36;14.30;;;8.50;;
54561;SDS011;40456;53.358;-1.486;2022-11-14T02:28:03;14.95;;;8.35;;
54561;SDS011;40456;53.358;-1.486;2022-11-14T02:30:29;14.25;;;8.57;;
54561;SDS011;40456;53.358;-1.486;2022-11-14T02:32:55;16.05;;;9.75;;
54561;SDS011;40456;53.358;-1.486;2022-11-14T02:35:20;17.88;;;9.07;;
54561;SDS011;40456;53.358;-1.486;2022-11-14T02:37:45;15.45;;;7.88;;
54561;SDS011;40456;53.358;-1.486;2022-11-14T02:40:11;15.88;;;8.35;;
54561;SDS011;40456;53.358;-1.486;2022-11-14T02:42:36;15.38;;;9.05;;
54561;SDS011;40456;53.358;-1.486;2022-11-14T02:45:02;16.17;;;9.20;;
54561;SDS011;40456;53.358;-1.486;2022-11-14T02:47:28;12.07;;;7.93;;
54561;SDS011;40456;53.358;-1.486;2022-11-14T02:49:53;12.57;;;8.80;;
54561;SDS011;40456;53.358;-1.486;2022-11-14T02:52:19;13.20;;;8.50;;
54561;SDS011;40456;53.358;-1.486;2022-11-14T02:54:44;14.25;;;8.43;;
54561;SDS011;40456;53.358;-1.486;2022-11-14T02:57:09;12.55;;;8.30;;
54561;SDS011;40456;53.358;-1.486;2022-11-14T02:59:35;15.43;;;9.13;;
54561;SDS011;40456;53.358;-1.486;2022-11-14T03:02:00;14.10;;;8.27;;
54561;SDS011;40456;53.358;-1.486;2022-11-14T03:04:26;12.55;;;7.18;;
54561;SDS011;40456;53.358;-1.486;2022-11-14T03:06:51;14.93;;;8.48;;
54561;SDS011;40456;53.358;-1.486;2022-11-14T03:09:16;14.68;;;8.27;;
54561;SDS011;40456;53.358;-1.486;2022-11-14T03:11:42;14.77;;;8.23;;
54561;SDS011;40456;53.358;-1.486;2022-11-14T03:14:07;14.52;;;9.40;;
54561;SDS011;40456;53.358;-1.486;2022-11-14T03:16:33;13.73;;;8.45;;
54561;SDS011;40456;53.358;-1.486;2022-11-14T03:18:58;13.90;;;8.48;;
54561;SDS011;40456;53.358;-1.486;2022-11-14T03:21:23;15.45;;;8.52;;
54561;SDS011;40456;53.358;-1.486;2022-11-14T03:23:49;15.55;;;9.85;;
54561;SDS011;40456;53.358;-1.486;2022-11-14T03:26:14;14.13;;;8.77;;
54561;SDS011;40456;53.358;-1.486;2022-11-14T03:28:40;16.63;;;9.60;;
54561;SDS011;40456;53.358;-1.486;2022-11-14T03:31:06;13.82;;;8.35;;
54561;SDS011;40456;53.358;-1.486;2022-11-14T03:33:34;13.02;;;8.02;;
54561;SDS011;40456;53.358;-1.486;2022-11-14T03:35:59;13.75;;;8.60;;
54561;SDS011;40456;53.358;-1.486;2022-11-14T03:38:25;14.02;;;9.05;;
54561;SDS011;40456;53.358;-1.486;2022-11-14T03:40:51;17.17;;;9.43;;
54561;SDS011;40456;53.358;-1.486;2022-11-14T03:43:17;16.30;;;9.07;;
54561;SDS011;40456;53.358;-1.486;2022-11-14T03:45:43;13.45;;;8.43;;
54561;SDS011;40456;53.358;-1.486;2022-11-14T03:48:09;13.48;;;7.90;;
54561;SDS011;40456;53.358;-1.486;2022-11-14T03:50:34;13.80;;;7.40;;
54561;SDS011;40456;53.358;-1.486;2022-11-14T03:52:59;14.10;;;8.52;;
54561;SDS011;40456;53.358;-1.486;2022-11-14T03:55:25;14.38;;;8.85;;
54561;SDS011;40456;53.358;-1.486;2022-11-14T03:57:50;15.02;;;9.00;;
54561;SDS011;40456;53.358;-1.486;2022-11-14T04:00:16;13.80;;;7.70;;
54561;SDS011;40456;53.358;-1.486;2022-11-14T04:02:42;16.38;;;8.88;;
54561;SDS011;40456;53.358;-1.486;2022-11-14T04:05:07;11.40;;;7.50;;
54561;SDS011;40456;53.358;-1.486;2022-11-14T04:07:33;15.23;;;8.18;;
54561;SDS011;40456;53.358;-1.486;2022-11-14T04:09:59;13.35;;;7.68;;
54561;SDS011;40456;53.358;-1.486;2022-11-14T04:12:24;14.25;;;7.93;;
54561;SDS011;40456;53.358;-1.486;2022-11-14T04:14:50;13.68;;;8.25;;
54561;SDS011;40456;53.358;-1.486;2022-11-14T04:17:15;12.95;;;7.97;;
54561;SDS011;40456;53.358;-1.486;2022-11-14T04:19:40;15.60;;;8.98;;
54561;SDS011;40456;53.358;-1.486;2022-11-14T04:22:06;11.73;;;7.55;;
54561;SDS011;40456;53.358;-1.486;2022-11-14T04:24:31;11.57;;;7.47;;
54561;SDS011;40456;53.358;-1.486;2022-11-14T04:26:56;11.27;;;7.50;;
54561;SDS011;40456;53.358;-1.486;2022-11-14T04:29:22;12.27;;;7.45;;
54561;SDS011;40456;53.358;-1.486;2022-11-14T04:31:47;12.23;;;7.55;;
54561;SDS011;40456;53.358;-1.486;2022-11-14T04:34:12;11.35;;;7.03;;
54561;SDS011;40456;53.358;-1.486;2022-11-14T04:36:38;11.95;;;6.90;;
54561;SDS011;40456;53.358;-1.486;2022-11-14T04:39:03;13.43;;;7.80;;
54561;SDS011;40456;53.358;-1.486;2022-11-14T04:41:29;11.45;;;6.95;;
54561;SDS011;40456;53.358;-1.486;2022-11-14T04:43:54;12.35;;;7.43;;
54561;SDS011;40456;53.358;-1.486;2022-11-14T04:46:20;11.52;;;6.95;;
54561;SDS011;40456;53.358;-1.486;2022-11-14T04:48:45;11.80;;;7.47;;
54561;SDS011;40456;53.358;-1.486;2022-11-14T04:51:11;10.50;;;6.20;;
54561;SDS011;40456;53.358;-1.486;2022-11-14T04:53:36;12.20;;;7.22;;
54561;SDS011;40456;53.358;-1.486;2022-11-14T04:56:01;10.05;;;6.65;;
54561;SDS011;40456;53.358;-1.486;2022-11-14T04:58:27;12.25;;;7.30;;
54561;SDS011;40456;53.358;-1.486;2022-11-14T05:00:53;11.88;;;7.20;;
54561;SDS011;40456;53.358;-1.486;2022-11-14T05:03:18;9.80;;;6.45;;
54561;SDS011;40456;53.358;-1.486;2022-11-14T05:05:44;13.13;;;7.47;;
54561;SDS011;40456;53.358;-1.486;2022-11-14T05:08:09;12.88;;;8.02;;
54561;SDS011;40456;53.358;-1.486;2022-11-14T05:10:34;13.27;;;7.55;;
54561;SDS011;40456;53.358;-1.486;2022-11-14T05:13:00;12.35;;;6.70;;
54561;SDS011;40456;53.358;-1.486;2022-11-14T05:15:25;11.63;;;7.15;;
54561;SDS011;40456;53.358;-1.486;2022-11-14T05:17:51;9.98;;;6.28;;
54561;SDS011;40456;53.358;-1.486;2022-11-14T05:20:16;11.57;;;6.80;;
54561;SDS011;40456;53.358;-1.486;2022-11-14T05:22:42;13.13;;;6.93;;
54561;SDS011;40456;53.358;-1.486;2022-11-14T05:25:07;14.48;;;7.22;;
54561;SDS011;40456;53.358;-1.486;2022-11-14T05:27:33;13.30;;;7.82;;
54561;SDS011;40456;53.358;-1.486;2022-11-14T05:29:58;10.68;;;6.90;;
54561;SDS011;40456;53.358;-1.486;2022-11-14T05:32:24;13.75;;;7.43;;
54561;SDS011;40456;53.358;-1.486;2022-11-14T05:34:49;12.80;;;7.25;;
54561;SDS011;40456;53.358;-1.486;2022-11-14T05:37:14;12.00;;;7.65;;
54561;SDS011;40456;53.358;-1.486;2022-11-14T05:39:40;13.90;;;7.47;;
54561;SDS011;40456;53.358;-1.486;2022-11-14T05:42:05;13.35;;;7.93;;
54561;SDS011;40456;53.358;-1.486;2022-11-14T05:44:31;15.13;;;8.65;;
54561;SDS011;40456;53.358;-1.486;2022-11-14T05:46:56;12.60;;;7.35;;
54561;SDS011;40456;53.358;-1.486;2022-11-14T05:49:22;13.43;;;7.63;;
54561;SDS011;40456;53.358;-1.486;2022-11-14T05:51:47;12.35;;;7.68;;
54561;SDS011;40456;53.358;-1.486;2022-11-14T05:54:13;11.98;;;7.25;;
54561;SDS011;40456;53.358;-1.486;2022-11-14T05:56:38;11.38;;;7.15;;
54561;SDS011;40456;53.358;-1.486;2022-11-14T05:59:04;10.27;;;7.07;;
54561;SDS011;40456;53.358;-1.486;2022-11-14T06:01:29;12.63;;;7.03;;
54561;SDS011;40456;53.358;-1.486;2022-11-14T06:03:54;11.50;;;7.13;;
54561;SDS011;40456;53.358;-1.486;2022-11-14T06:06:20;11.48;;;6.93;;
54561;SDS011;40456;53.358;-1.486;2022-11-14T06:08:46;13.10;;;7.55;;
54561;SDS011;40456;53.358;-1.486;2022-11-14T06:11:13;11.13;;;6.50;;
54561;SDS011;40456;53.358;-1.486;2022-11-14T06:13:40;10.50;;;6.32;;
54561;SDS011;40456;53.358;-1.486;2022-11-14T06:16:07;9.52;;;6.15;;
54561;SDS011;40456;53.358;-1.486;2022-11-14T06:18:35;10.73;;;6.80;;
54561;SDS011;40456;53.358;-1.486;2022-11-14T06:21:01;9.63;;;6.20;;
54561;SDS011;40456;53.358;-1.486;2022-11-14T06:23:28;10.13;;;6.35;;
54561;SDS011;40456;53.358;-1.486;2022-11-14T06:25:57;10.90;;;6.85;;
54561;SDS011;40456;53.358;-1.486;2022-11-14T06:28:26;9.83;;;6.20;;
54561;SDS011;40456;53.358;-1.486;2022-11-14T06:30:55;9.25;;;6.07;;
54561;SDS011;40456;53.358;-1.486;2022-11-14T06:33:21;8.85;;;6.15;;
54561;SDS011;40456;53.358;-1.486;2022-11-14T06:35:47;9.63;;;6.05;;
54561;SDS011;40456;53.358;-1.486;2022-11-14T06:38:12;10.73;;;5.95;;
54561;SDS011;40456;53.358;-1.486;2022-11-14T06:40:37;9.60;;;5.93;;
54561;SDS011;40456;53.358;-1.486;2022-11-14T06:43:03;11.02;;;6.60;;
54561;SDS011;40456;53.358;-1.486;2022-11-14T06:45:28;12.43;;;7.03;;
54561;SDS011;40456;53.358;-1.486;2022-11-14T06:47:56;9.52;;;6.10;;
54561;SDS011;40456;53.358;-1.486;2022-11-14T06:50:22;12.32;;;6.68;;
54561;SDS011;40456;53.358;-1.486;2022-11-14T06:52:48;9.57;;;6.40;;
54561;SDS011;40456;53.358;-1.486;2022-11-14T06:55:13;9.70;;;6.38;;
54561;SDS011;40456;53.358;-1.486;2022-11-14T06:57:39;11.10;;;6.15;;
54561;SDS011;40456;53.358;-1.486;2022-11-14T07:00:04;9.20;;;6.10;;
54561;SDS011;40456;53.358;-1.486;2022-11-14T07:02:30;11.15;;;6.93;;
54561;SDS011;40456;53.358;-1.486;2022-11-14T07:04:55;14.10;;;7.70;;
54561;SDS011;40456;53.358;-1.486;2022-11-14T07:07:21;9.98;;;5.90;;
54561;SDS011;40456;53.358;-1.486;2022-11-14T07:09:46;10.60;;;6.68;;
54561;SDS011;40456;53.358;-1.486;2022-11-14T07:12:11;9.70;;;6.25;;
54561;SDS011;40456;53.358;-1.486;2022-11-14T07:14:37;10.57;;;6.45;;
54561;SDS011;40456;53.358;-1.486;2022-11-14T07:17:02;11.32;;;6.45;;
54561;SDS011;40456;53.358;-1.486;2022-11-14T07:19:28;12.63;;;6.53;;
54561;SDS011;40456;53.358;-1.486;2022-11-14T07:21:53;10.75;;;6.47;;
54561;SDS011;40456;53.358;-1.486;2022-11-14T07:24:19;10.65;;;6.70;;
54561;SDS011;40456;53.358;-1.486;2022-11-14T07:26:45;10.63;;;6.88;;
54561;SDS011;40456;53.358;-1.486;2022-11-14T07:29:11;9.80;;;5.70;;
54561;SDS011;40456;53.358;-1.486;2022-11-14T07:31:39;11.65;;;6.70;;
54561;SDS011;40456;53.358;-1.486;2022-11-14T07:34:07;10.05;;;5.97;;
54561;SDS011;40456;53.358;-1.486;2022-11-14T07:36:33;9.75;;;6.72;;
54561;SDS011;40456;53.358;-1.486;2022-11-14T07:38:58;9.52;;;5.68;;
54561;SDS011;40456;53.358;-1.486;2022-11-14T07:41:23;11.27;;;6.68;;
54561;SDS011;40456;53.358;-1.486;2022-11-14T07:43:49;11.43;;;6.45;;
54561;SDS011;40456;53.358;-1.486;2022-11-14T07:46:15;9.80;;;6.40;;
54561;SDS011;40456;53.358;-1.486;2022-11-14T07:48:42;10.98;;;6.50;;
54561;SDS011;40456;53.358;-1.486;2022-11-14T07:51:09;9.50;;;6.00;;
54561;SDS011;40456;53.358;-1.486;2022-11-14T07:53:38;9.77;;;6.00;;
54561;SDS011;40456;53.358;-1.486;2022-11-14T07:56:04;10.43;;;6.35;;
54561;SDS011;40456;53.358;-1.486;2022-11-14T07:58:30;10.63;;;6.65;;
54561;SDS011;40456;53.358;-1.486;2022-11-14T08:00:59;8.43;;;5.93;;
54561;SDS011;40456;53.358;-1.486;2022-11-14T08:03:25;10.57;;;5.88;;
54561;SDS011;40456;53.358;-1.486;2022-11-14T08:05:50;12.02;;;6.75;;
54561;SDS011;40456;53.358;-1.486;2022-11-14T08:08:15;10.05;;;5.65;;
54561;SDS011;40456;53.358;-1.486;2022-11-14T08:10:41;8.13;;;5.50;;
54561;SDS011;40456;53.358;-1.486;2022-11-14T08:13:06;11.38;;;6.05;;
54561;SDS011;40456;53.358;-1.486;2022-11-14T08:15:32;11.55;;;6.35;;
54561;SDS011;40456;53.358;-1.486;2022-11-14T08:17:58;11.55;;;6.13;;
54561;SDS011;40456;53.358;-1.486;2022-11-14T08:20:24;9.38;;;5.60;;
54561;SDS011;40456;53.358;-1.486;2022-11-14T08:22:53;9.15;;;5.18;;
54561;SDS011;40456;53.358;-1.486;2022-11-14T08:25:19;9.13;;;5.43;;
54561;SDS011;40456;53.358;-1.486;2022-11-14T08:27:44;10.23;;;6.07;;
54561;SDS011;40456;53.358;-1.486;2022-11-14T08:30:10;12.52;;;6.65;;
54561;SDS011;40456;53.358;-1.486;2022-11-14T08:32:35;9.40;;;5.97;;
54561;SDS011;40456;53.358;-1.486;2022-11-14T08:35:01;9.98;;;5.40;;
54561;SDS011;40456;53.358;-1.486;2022-11-14T08:37:26;9.02;;;5.60;;
54561;SDS011;40456;53.358;-1.486;2022-11-14T08:39:52;10.30;;;5.78;;
54561;SDS011;40456;53.358;-1.486;2022-11-14T08:42:17;11.15;;;6.22;;
54561;SDS011;40456;53.358;-1.486;2022-11-14T08:44:42;10.15;;;5.53;;
54561;SDS011;40456;53.358;-1.486;2022-11-14T08:47:08;7.53;;;4.65;;
54561;SDS011;40456;53.358;-1.486;2022-11-14T08:49:33;8.20;;;5.13;;
54561;SDS011;40456;53.358;-1.486;2022-11-14T08:51:58;9.40;;;6.20;;
54561;SDS011;40456;53.358;-1.486;2022-11-14T08:54:24;9.32;;;5.15;;
54561;SDS011;40456;53.358;-1.486;2022-11-14T08:56:49;10.50;;;5.38;;
54561;SDS011;40456;53.358;-1.486;2022-11-14T08:59:15;7.22;;;4.78;;
54561;SDS011;40456;53.358;-1.486;2022-11-14T09:01:40;8.15;;;4.57;;
54561;SDS011;40456;53.358;-1.486;2022-11-14T09:04:05;8.00;;;4.45;;
54561;SDS011;40456;53.358;-1.486;2022-11-14T09:06:32;7.32;;;4.53;;
54561;SDS011;40456;53.358;-1.486;2022-11-14T09:08:57;8.10;;;5.20;;
54561;SDS011;40456;53.358;-1.486;2022-11-14T09:11:23;9.40;;;5.40;;
54561;SDS011;40456;53.358;-1.486;2022-11-14T09:13:48;9.07;;;5.40;;
54561;SDS011;40456;53.358;-1.486;2022-11-14T09:16:13;7.63;;;4.97;;
54561;SDS011;40456;53.358;-1.486;2022-11-14T09:18:39;8.38;;;5.72;;
54561;SDS011;40456;53.358;-1.486;2022-11-14T09:21:05;8.90;;;5.47;;
54561;SDS011;40456;53.358;-1.486;2022-11-14T09:23:32;8.93;;;6.10;;
54561;SDS011;40456;53.358;-1.486;2022-11-14T09:26:02;10.15;;;5.78;;
54561;SDS011;40456;53.358;-1.486;2022-11-14T09:28:28;8.07;;;4.90;;
54561;SDS011;40456;53.358;-1.486;2022-11-14T09:30:58;8.40;;;5.80;;
54561;SDS011;40456;53.358;-1.486;2022-11-14T09:33:27;11.13;;;5.68;;
54561;SDS011;40456;53.358;-1.486;2022-11-14T09:35:57;9.77;;;5.70;;
54561;SDS011;40456;53.358;-1.486;2022-11-14T09:38:23;10.45;;;5.82;;
54561;SDS011;40456;53.358;-1.486;2022-11-14T09:40:51;8.52;;;5.32;;
54561;SDS011;40456;53.358;-1.486;2022-11-14T09:43:33;8.13;;;4.80;;
54561;SDS011;40456;53.358;-1.486;2022-11-14T09:46:03;10.00;;;5.57;;
54561;SDS011;40456;53.358;-1.486;2022-11-14T09:48:38;10.52;;;5.88;;
54561;SDS011;40456;53.358;-1.486;2022-11-14T09:51:24;9.23;;;5.25;;
54561;SDS011;40456;53.358;-1.486;2022-11-14T09:56:36;11.02;;;5.72;;
54561;SDS011;40456;53.358;-1.486;2022-11-14T09:59:01;9.05;;;6.07;;
54561;SDS011;40456;53.358;-1.486;2022-11-14T10:01:45;10.80;;;5.90;;
54561;SDS011;40456;53.358;-1.486;2022-11-14T10:11:52;9.80;;;5.50;;
54561;SDS011;40456;53.358;-1.486;2022-11-14T10:14:27;10.33;;;6.03;;
54561;SDS011;40456;53.358;-1.486;2022-11-14T10:17:12;9.13;;;5.18;;
54561;SDS011;40456;53.358;-1.486;2022-11-14T10:19:46;9.30;;;5.15;;
54561;SDS011;40456;53.358;-1.486;2022-11-14T10:22:26;9.20;;;5.78;;
54561;SDS011;40456;53.358;-1.486;2022-11-14T10:27:26;9.20;;;5.90;;
54561;SDS011;40456;53.358;-1.486;2022-11-14T10:32:40;9.43;;;5.57;;
54561;SDS011;40456;53.358;-1.486;2022-11-14T10:35:26;7.18;;;4.93;;
54561;SDS011;40456;53.358;-1.486;2022-11-14T10:37:57;7.82;;;5.05;;
54561;SDS011;40456;53.358;-1.486;2022-11-14T10:40:57;8.52;;;5.35;;
54561;SDS011;40456;53.358;-1.486;2022-11-14T10:43:43;8.30;;;5.28;;
54561;SDS011;40456;53.358;-1.486;2022-11-14T10:46:12;8.57;;;4.97;;
54561;SDS011;40456;53.358;-1.486;2022-11-14T10:48:48;7.10;;;4.57;;
54561;SDS011;40456;53.358;-1.486;2022-11-14T10:51:27;8.73;;;5.45;;
54561;SDS011;40456;53.358;-1.486;2022-11-14T10:56:48;8.30;;;5.20;;
54561;SDS011;40456;53.358;-1.486;2022-11-14T10:59:15;7.00;;;4.57;;
54561;SDS011;40456;53.358;-1.486;2022-11-14T11:01:41;6.38;;;4.57;;
54561;SDS011;40456;53.358;-1.486;2022-11-14T11:06:56;9.50;;;5.32;;
54561;SDS011;40456;53.358;-1.486;2022-11-14T11:09:24;8.30;;;4.53;;
54561;SDS011;40456;53.358;-1.486;2022-11-14T11:12:17;8.27;;;4.90;;
54561;SDS011;40456;53.358;-1.486;2022-11-14T11:14:45;7.68;;;4.75;;
54561;SDS011;40456;53.358;-1.486;2022-11-14T11:19:45;9.13;;;5.22;;
54561;SDS011;40456;53.358;-1.486;2022-11-14T11:22:26;9.25;;;5.80;;
54561;SDS011;40456;53.358;-1.486;2022-11-14T11:24:53;9.25;;;4.93;;
54561;SDS011;40456;53.358;-1.486;2022-11-14T11:29:44;9.05;;;5.90;;
54561;SDS011;40456;53.358;-1.486;2022-11-14T11:32:11;7.53;;;4.80;;
54561;SDS011;40456;53.358;-1.486;2022-11-14T11:34:48;9.63;;;5.53;;
54561;SDS011;40456;53.358;-1.486;2022-11-14T11:37:19;7.32;;;5.15;;
54561;SDS011;40456;53.358;-1.486;2022-11-14T11:39:53;8.20;;;5.45;;
54561;SDS011;40456;53.358;-1.486;2022-11-14T11:42:32;8.75;;;5.50;;
54561;SDS011;40456;53.358;-1.486;2022-11-14T11:45:01;7.75;;;5.15;;
54561;SDS011;40456;53.358;-1.486;2022-11-14T11:47:28;10.02;;;5.38;;
54561;SDS011;40456;53.358;-1.486;2022-11-14T11:49:55;8.40;;;5.50;;
54561;SDS011;40456;53.358;-1.486;2022-11-14T11:52:34;9.23;;;4.82;;
54561;SDS011;40456;53.358;-1.486;2022-11-14T11:57:35;9.65;;;5.03;;
54561;SDS011;40456;53.358;-1.486;2022-11-14T12:00:12;8.35;;;5.55;;
54561;SDS011;40456;53.358;-1.486;2022-11-14T12:02:44;10.48;;;5.50;;
54561;SDS011;40456;53.358;-1.486;2022-11-14T12:05:20;9.38;;;5.57;;
54561;SDS011;40456;53.358;-1.486;2022-11-14T12:08:02;9.85;;;5.70;;
54561;SDS011;40456;53.358;-1.486;2022-11-14T12:10:32;11.43;;;5.93;;
54561;SDS011;40456;53.358;-1.486;2022-11-14T12:26:40;10.75;;;6.13;;
54561;SDS011;40456;53.358;-1.486;2022-11-14T12:31:41;9.80;;;6.05;;
54561;SDS011;40456;53.358;-1.486;2022-11-14T12:36:47;10.80;;;5.85;;
54561;SDS011;40456;53.358;-1.486;2022-11-14T12:39:20;12.32;;;7.43;;
54561;SDS011;40456;53.358;-1.486;2022-11-14T12:41:50;11.15;;;7.30;;
54561;SDS011;40456;53.358;-1.486;2022-11-14T12:49:36;11.55;;;6.50;;
54561;SDS011;40456;53.358;-1.486;2022-11-14T12:52:01;11.82;;;7.03;;
54561;SDS011;40456;53.358;-1.486;2022-11-14T12:54:43;11.90;;;7.15;;
54561;SDS011;40456;53.358;-1.486;2022-11-14T12:57:11;11.60;;;7.18;;
54561;SDS011;40456;53.358;-1.486;2022-11-14T13:00:05;9.90;;;7.05;;
54561;SDS011;40456;53.358;-1.486;2022-11-14T13:05:24;10.20;;;6.15;;
54561;SDS011;40456;53.358;-1.486;2022-11-14T13:11:31;10.10;;;6.10;;
54561;SDS011;40456;53.358;-1.486;2022-11-14T13:14:14;10.48;;;6.25;;
54561;SDS011;40456;53.358;-1.486;2022-11-14T13:20:00;10.18;;;6.22;;
54561;SDS011;40456;53.358;-1.486;2022-11-14T13:22:45;9.60;;;6.57;;
54561;SDS011;40456;53.358;-1.486;2022-11-14T13:25:14;9.77;;;5.63;;
54561;SDS011;40456;53.358;-1.486;2022-11-14T13:27:42;9.65;;;5.72;;
54561;SDS011;40456;53.358;-1.486;2022-11-14T13:30:07;9.88;;;6.30;;
54561;SDS011;40456;53.358;-1.486;2022-11-14T13:35:04;8.35;;;5.75;;
54561;SDS011;40456;53.358;-1.486;2022-11-14T13:46:13;6.97;;;4.88;;
54561;SDS011;40456;53.358;-1.486;2022-11-14T13:51:34;7.70;;;5.63;;
54561;SDS011;40456;53.358;-1.486;2022-11-14T13:54:01;6.68;;;4.57;;
54561;SDS011;40456;53.358;-1.486;2022-11-14T13:56:33;6.93;;;4.60;;
54561;SDS011;40456;53.358;-1.486;2022-11-14T14:01:50;7.55;;;5.15;;
54561;SDS011;40456;53.358;-1.486;2022-11-14T14:17:30;8.68;;;5.38;;
54561;SDS011;40456;53.358;-1.486;2022-11-14T14:20:00;6.53;;;4.68;;
54561;SDS011;40456;53.358;-1.486;2022-11-14T14:25:25;7.03;;;5.03;;
54561;SDS011;40456;53.358;-1.486;2022-11-14T14:31:02;7.15;;;4.57;;
54561;SDS011;40456;53.358;-1.486;2022-11-14T14:33:38;6.60;;;4.47;;
54561;SDS011;40456;53.358;-1.486;2022-11-14T14:36:15;8.15;;;5.28;;
54561;SDS011;40456;53.358;-1.486;2022-11-14T14:38:45;7.10;;;4.88;;
54561;SDS011;40456;53.358;-1.486;2022-11-14T14:41:11;7.32;;;4.53;;
54561;SDS011;40456;53.358;-1.486;2022-11-14T14:43:39;8.02;;;4.82;;
54561;SDS011;40456;53.358;-1.486;2022-11-14T14:46:05;7.63;;;4.80;;
54561;SDS011;40456;53.358;-1.486;2022-11-14T14:48:32;5.88;;;3.78;;
54561;SDS011;40456;53.358;-1.486;2022-11-14T14:50:59;6.05;;;3.75;;
54561;SDS011;40456;53.358;-1.486;2022-11-14T14:53:27;5.20;;;3.47;;
54561;SDS011;40456;53.358;-1.486;2022-11-14T14:55:58;6.47;;;3.78;;
54561;SDS011;40456;53.358;-1.486;2022-11-14T15:00:55;6.30;;;3.55;;
54561;SDS011;40456;53.358;-1.486;2022-11-14T15:06:33;6.60;;;3.45;;
54561;SDS011;40456;53.358;-1.486;2022-11-14T15:09:00;4.68;;;3.00;;
54561;SDS011;40456;53.358;-1.486;2022-11-14T15:11:26;4.03;;;2.97;;
54561;SDS011;40456;53.358;-1.486;2022-11-14T15:13:54;4.10;;;2.95;;
54561;SDS011;40456;53.358;-1.486;2022-11-14T15:16:21;3.75;;;2.97;;
54561;SDS011;40456;53.358;-1.486;2022-11-14T15:18:47;4.10;;;2.60;;
54561;SDS011;40456;53.358;-1.486;2022-11-14T15:26:21;4.07;;;2.80;;
54561;SDS011;40456;53.358;-1.486;2022-11-14T15:28:46;4.22;;;3.08;;
54561;SDS011;40456;53.358;-1.486;2022-11-14T15:31:16;4.65;;;3.22;;
54561;SDS011;40456;53.358;-1.486;2022-11-14T15:33:43;3.92;;;2.30;;
54561;SDS011;40456;53.358;-1.486;2022-11-14T15:38:38;3.30;;;2.45;;
54561;SDS011;40456;53.358;-1.486;2022-11-14T15:41:17;3.38;;;2.60;;
54561;SDS011;40456;53.358;-1.486;2022-11-14T15:43:47;4.82;;;2.95;;
54561;SDS011;40456;53.358;-1.486;2022-11-14T15:49:05;3.80;;;2.70;;
54561;SDS011;40456;53.358;-1.486;2022-11-14T15:51:38;3.55;;;2.40;;
54561;SDS011;40456;53.358;-1.486;2022-11-14T15:56:49;5.40;;;2.50;;
54561;SDS011;40456;53.358;-1.486;2022-11-14T15:59:15;5.20;;;2.47;;
54561;SDS011;40456;53.358;-1.486;2022-11-14T16:01:40;4.05;;;2.00;;
54561;SDS011;40456;53.358;-1.486;2022-11-14T16:04:12;3.13;;;2.40;;
54561;SDS011;40456;53.358;-1.486;2022-11-14T16:06:39;2.55;;;2.30;;
54561;SDS011;40456;53.358;-1.486;2022-11-14T16:09:05;3.33;;;2.80;;
54561;SDS011;40456;53.358;-1.486;2022-11-14T16:11:30;3.50;;;2.63;;
54561;SDS011;40456;53.358;-1.486;2022-11-14T16:13:56;3.72;;;2.63;;
54561;SDS011;40456;53.358;-1.486;2022-11-14T16:16:21;2.20;;;2.00;;
54561;SDS011;40456;53.358;-1.486;2022-11-14T16:18:47;3.03;;;2.30;;
54561;SDS011;40456;53.358;-1.486;2022-11-14T16:21:13;3.13;;;2.40;;
54561;SDS011;40456;53.358;-1.486;2022-11-14T16:23:40;3.85;;;2.67;;
54561;SDS011;40456;53.358;-1.486;2022-11-14T16:26:05;2.33;;;1.80;;
54561;SDS011;40456;53.358;-1.486;2022-11-14T16:28:31;4.75;;;2.97;;